Lake Quivira, Kansas
Current Conditions -  °F | °C
As of 11:53 AM on Sunday 21 Dec 2014 (Local Time) from KOJC Reporting Station
Overcast Overcast  
Wind Chill:   Ceiling: 1100
Heat Index:   Visibility: 7mi
Dew Point:   Wind: 13mph
Humidity: 89%   Direction: 180°S
Pressure: 29.95"   Gusts: NA
Location:  39.0067°N, 94.7872°W
Report Text: KOJC 211753Z 18011KT 7SM OVC011 06/04 A2995 RMK AO2 SLP146 T00560039 10056 20022 58022
Loading
Personal Weather Stations






























Interactive Weather Map New forecast layout! Learn more

10-Day Weather Forecast

Advertisements
Track Severe Weather on mobile